South Range, Wisconsin
Current Conditions -  °F | °C
As of 11:35 PM on Wednesday 22 Oct 2014 (Local Time) from KSUW Reporting Station
Clear Clear  
Wind Chill: 49°   Ceiling: Unl
Heat Index: 49°   Visibility: 10mi
Dew Point: 36°   Wind: 3mph
Humidity: 60%   Direction: 190°S
Pressure: 30.03"   Gusts: NA
Location:  46.61°N, 91.98°W
Report Text: KSUW 230435Z AUTO 19003KT 10SM CLR 10/02 A3003 RMK AO2 T00950021
Loading
Personal Weather Stations






























Interactive Weather Map
Tropical Storm Tracking
New forecast layout! Learn more

10-Day Weather Forecast

Advertisements
Track Severe Weather on mobile